sensor_id;sensor_type;location;lat;lon;timestamp;pressure;altitude;pressure_sealevel;temperature;humidity
22031;BME280;11179;52.106;21.024;2023-05-21T00:00:05;101239.47;;;14.04;59.88
22031;BME280;11179;52.106;21.024;2023-05-21T00:02:35;101234.44;;;13.96;59.75
22031;BME280;11179;52.106;21.024;2023-05-21T00:05:00;101249.25;;;13.90;60.12
22031;BME280;11179;52.106;21.024;2023-05-21T00:07:25;101242.53;;;13.81;60.16
22031;BME280;11179;52.106;21.024;2023-05-21T00:09:51;101243.50;;;13.70;60.29
22031;BME280;11179;52.106;21.024;2023-05-21T00:12:17;101243.94;;;13.62;60.44
22031;BME280;11179;52.106;21.024;2023-05-21T00:14:42;101248.88;;;13.60;60.72
22031;BME280;11179;52.106;21.024;2023-05-21T00:17:07;101240.56;;;13.55;60.71
22031;BME280;11179;52.106;21.024;2023-05-21T00:19:33;101246.56;;;13.52;60.91
22031;BME280;11179;52.106;21.024;2023-05-21T00:21:58;101242.03;;;13.46;60.91
22031;BME280;11179;52.106;21.024;2023-05-21T00:24:27;101240.06;;;13.41;61.07
22031;BME280;11179;52.106;21.024;2023-05-21T00:26:52;101238.06;;;13.37;61.35
22031;BME280;11179;52.106;21.024;2023-05-21T00:29:17;101233.91;;;13.34;61.27
22031;BME280;11179;52.106;21.024;2023-05-21T00:31:43;101238.28;;;13.30;61.33
22031;BME280;11179;52.106;21.024;2023-05-21T00:34:08;101229.09;;;13.24;61.49
22031;BME280;11179;52.106;21.024;2023-05-21T00:36:33;101242.38;;;13.27;61.52
22031;BME280;11179;52.106;21.024;2023-05-21T00:38:59;101241.78;;;13.25;61.53
22031;BME280;11179;52.106;21.024;2023-05-21T00:41:26;101251.16;;;13.24;61.32
22031;BME280;11179;52.106;21.024;2023-05-21T00:43:54;101244.81;;;13.24;61.20
22031;BME280;11179;52.106;21.024;2023-05-21T00:46:20;101242.78;;;13.19;61.30
22031;BME280;11179;52.106;21.024;2023-05-21T00:48:47;101254.03;;;13.13;61.59
22031;BME280;11179;52.106;21.024;2023-05-21T00:51:14;101250.59;;;13.06;61.70
22031;BME280;11179;52.106;21.024;2023-05-21T00:53:40;101253.63;;;13.04;61.93
22031;BME280;11179;52.106;21.024;2023-05-21T00:56:05;101252.47;;;13.00;61.96
22031;BME280;11179;52.106;21.024;2023-05-21T00:58:31;101246.03;;;12.94;61.88
22031;BME280;11179;52.106;21.024;2023-05-21T01:00:58;101240.94;;;12.86;61.73
22031;BME280;11179;52.106;21.024;2023-05-21T01:03:30;101245.22;;;12.77;62.14
22031;BME280;11179;52.106;21.024;2023-05-21T01:06:03;101245.72;;;12.74;62.12
22031;BME280;11179;52.106;21.024;2023-05-21T01:08:28;101253.06;;;12.69;62.27
22031;BME280;11179;52.106;21.024;2023-05-21T01:10:54;101250.75;;;12.60;62.21
22031;BME280;11179;52.106;21.024;2023-05-21T01:13:20;101258.31;;;12.53;62.37
22031;BME280;11179;52.106;21.024;2023-05-21T01:15:48;101254.91;;;12.46;62.60
22031;BME280;11179;52.106;21.024;2023-05-21T01:18:14;101249.75;;;12.38;62.70
22031;BME280;11179;52.106;21.024;2023-05-21T01:20:40;101255.19;;;12.33;63.01
22031;BME280;11179;52.106;21.024;2023-05-21T01:23:06;101245.16;;;12.27;63.00
22031;BME280;11179;52.106;21.024;2023-05-21T01:25:33;101248.66;;;12.22;63.33
22031;BME280;11179;52.106;21.024;2023-05-21T01:27:59;101238.03;;;12.14;63.27
22031;BME280;11179;52.106;21.024;2023-05-21T01:30:25;101246.00;;;12.11;63.42
22031;BME280;11179;52.106;21.024;2023-05-21T01:33:03;101239.53;;;12.05;63.63
22031;BME280;11179;52.106;21.024;2023-05-21T01:35:34;101233.25;;;11.93;63.94
22031;BME280;11179;52.106;21.024;2023-05-21T01:38:23;101237.22;;;11.85;64.34
22031;BME280;11179;52.106;21.024;2023-05-21T01:43:19;101235.47;;;11.79;64.29
22031;BME280;11179;52.106;21.024;2023-05-21T01:45:47;101245.03;;;11.77;64.25
22031;BME280;11179;52.106;21.024;2023-05-21T01:48:16;101238.34;;;11.73;64.31
22031;BME280;11179;52.106;21.024;2023-05-21T01:50:42;101242.44;;;11.70;64.33
22031;BME280;11179;52.106;21.024;2023-05-21T01:53:08;101235.16;;;11.64;64.10
22031;BME280;11179;52.106;21.024;2023-05-21T01:55:34;101247.97;;;11.59;64.19
22031;BME280;11179;52.106;21.024;2023-05-21T01:58:03;101242.97;;;11.55;64.31
22031;BME280;11179;52.106;21.024;2023-05-21T02:00:28;101239.25;;;11.50;64.46
22031;BME280;11179;52.106;21.024;2023-05-21T02:02:56;101243.34;;;11.47;64.72
22031;BME280;11179;52.106;21.024;2023-05-21T02:05:22;101239.16;;;11.45;64.48
22031;BME280;11179;52.106;21.024;2023-05-21T02:07:49;101234.47;;;11.45;64.81
22031;BME280;11179;52.106;21.024;2023-05-21T02:10:16;101238.06;;;11.46;64.65
22031;BME280;11179;52.106;21.024;2023-05-21T02:12:41;101241.56;;;11.41;64.55
22031;BME280;11179;52.106;21.024;2023-05-21T02:15:07;101244.19;;;11.36;64.80
22031;BME280;11179;52.106;21.024;2023-05-21T02:17:32;101235.88;;;11.31;64.52
22031;BME280;11179;52.106;21.024;2023-05-21T02:20:02;101243.50;;;11.29;64.86
22031;BME280;11179;52.106;21.024;2023-05-21T02:22:41;101240.41;;;11.26;64.70
22031;BME280;11179;52.106;21.024;2023-05-21T02:25:08;101244.69;;;11.22;65.10
22031;BME280;11179;52.106;21.024;2023-05-21T02:27:34;101231.44;;;11.18;65.15
22031;BME280;11179;52.106;21.024;2023-05-21T02:30:01;101230.88;;;11.16;64.93
22031;BME280;11179;52.106;21.024;2023-05-21T02:32:27;101228.66;;;11.07;65.08
22031;BME280;11179;52.106;21.024;2023-05-21T02:34:52;101231.19;;;11.08;65.05
22031;BME280;11179;52.106;21.024;2023-05-21T02:37:18;101226.06;;;11.00;65.20
22031;BME280;11179;52.106;21.024;2023-05-21T02:39:44;101231.94;;;11.04;65.17
22031;BME280;11179;52.106;21.024;2023-05-21T02:42:10;101223.09;;;11.02;65.25
22031;BME280;11179;52.106;21.024;2023-05-21T02:44:35;101229.41;;;11.02;65.43
22031;BME280;11179;52.106;21.024;2023-05-21T02:47:00;101226.66;;;11.02;65.22
22031;BME280;11179;52.106;21.024;2023-05-21T02:49:26;101222.72;;;10.98;65.21
22031;BME280;11179;52.106;21.024;2023-05-21T02:51:51;101219.97;;;10.98;65.09
22031;BME280;11179;52.106;21.024;2023-05-21T02:54:25;101224.38;;;10.99;65.15
22031;BME280;11179;52.106;21.024;2023-05-21T02:56:53;101214.94;;;10.95;65.25
22031;BME280;11179;52.106;21.024;2023-05-21T02:59:18;101223.41;;;11.05;65.09
22031;BME280;11179;52.106;21.024;2023-05-21T03:01:43;101229.63;;;11.12;65.21
22031;BME280;11179;52.106;21.024;2023-05-21T03:04:09;101221.38;;;11.36;64.81
22031;BME280;11179;52.106;21.024;2023-05-21T03:06:34;101233.00;;;11.66;64.46
22031;BME280;11179;52.106;21.024;2023-05-21T03:09:02;101233.75;;;11.90;64.11
22031;BME280;11179;52.106;21.024;2023-05-21T03:11:27;101230.78;;;12.25;63.42
22031;BME280;11179;52.106;21.024;2023-05-21T03:13:52;101235.28;;;12.59;62.88
22031;BME280;11179;52.106;21.024;2023-05-21T03:16:17;101224.16;;;12.88;62.66
22031;BME280;11179;52.106;21.024;2023-05-21T03:18:43;101221.81;;;13.18;62.03
22031;BME280;11179;52.106;21.024;2023-05-21T03:21:09;101210.03;;;13.45;61.60
22031;BME280;11179;52.106;21.024;2023-05-21T03:23:37;101213.41;;;13.68;61.34
22031;BME280;11179;52.106;21.024;2023-05-21T03:26:02;101213.88;;;13.87;61.17
22031;BME280;11179;52.106;21.024;2023-05-21T03:28:28;101211.03;;;14.04;60.87
22031;BME280;11179;52.106;21.024;2023-05-21T03:30:54;101210.06;;;14.20;60.49
22031;BME280;11179;52.106;21.024;2023-05-21T03:33:20;101204.72;;;14.40;60.18
22031;BME280;11179;52.106;21.024;2023-05-21T03:35:46;101202.13;;;14.61;59.84
22031;BME280;11179;52.106;21.024;2023-05-21T03:38:11;101193.63;;;14.67;59.13
22031;BME280;11179;52.106;21.024;2023-05-21T03:40:36;101194.03;;;14.86;58.50
22031;BME280;11179;52.106;21.024;2023-05-21T03:43:01;101195.53;;;15.04;58.05
22031;BME280;11179;52.106;21.024;2023-05-21T03:45:27;101182.88;;;15.18;57.57
22031;BME280;11179;52.106;21.024;2023-05-21T03:47:52;101181.59;;;15.41;57.12
22031;BME280;11179;52.106;21.024;2023-05-21T03:50:18;101191.56;;;15.47;56.42
22031;BME280;11179;52.106;21.024;2023-05-21T03:52:43;101201.63;;;15.63;55.92
22031;BME280;11179;52.106;21.024;2023-05-21T03:55:08;101203.06;;;15.86;55.18
22031;BME280;11179;52.106;21.024;2023-05-21T03:57:34;101192.63;;;16.08;54.63
22031;BME280;11179;52.106;21.024;2023-05-21T03:59:59;101195.94;;;16.31;53.97
22031;BME280;11179;52.106;21.024;2023-05-21T04:02:25;101190.16;;;16.37;53.25
22031;BME280;11179;52.106;21.024;2023-05-21T04:04:51;101183.78;;;16.62;52.53
22031;BME280;11179;52.106;21.024;2023-05-21T04:07:18;101182.63;;;16.89;52.20
22031;BME280;11179;52.106;21.024;2023-05-21T04:09:43;101188.16;;;17.04;51.34
22031;BME280;11179;52.106;21.024;2023-05-21T04:12:08;101179.16;;;17.32;51.03
22031;BME280;11179;52.106;21.024;2023-05-21T04:14:35;101201.47;;;17.71;50.67
22031;BME280;11179;52.106;21.024;2023-05-21T04:17:00;101191.06;;;17.97;50.14
22031;BME280;11179;52.106;21.024;2023-05-21T04:19:29;101188.13;;;18.17;49.33
22031;BME280;11179;52.106;21.024;2023-05-21T04:21:54;101189.41;;;18.35;48.11
22031;BME280;11179;52.106;21.024;2023-05-21T04:24:22;101194.03;;;18.50;47.68
22031;BME280;11179;52.106;21.024;2023-05-21T04:26:47;101196.22;;;18.53;47.11
22031;BME280;11179;52.106;21.024;2023-05-21T04:29:14;101193.25;;;18.73;46.72
22031;BME280;11179;52.106;21.024;2023-05-21T04:31:42;101185.84;;;18.63;46.09
22031;BME280;11179;52.106;21.024;2023-05-21T04:34:07;101189.72;;;18.91;46.20
22031;BME280;11179;52.106;21.024;2023-05-21T04:36:32;101188.59;;;18.92;45.11
22031;BME280;11179;52.106;21.024;2023-05-21T04:38:58;101184.06;;;19.02;44.88
22031;BME280;11179;52.106;21.024;2023-05-21T04:41:23;101179.53;;;19.34;44.68
22031;BME280;11179;52.106;21.024;2023-05-21T04:46:19;101180.38;;;20.15;43.55
22031;BME280;11179;52.106;21.024;2023-05-21T04:48:44;101167.22;;;20.67;43.09
22031;BME280;11179;52.106;21.024;2023-05-21T04:51:10;101177.91;;;20.79;41.94
22031;BME280;11179;52.106;21.024;2023-05-21T04:53:36;101188.72;;;20.99;41.50
22031;BME280;11179;52.106;21.024;2023-05-21T04:56:02;101185.31;;;21.16;41.10
22031;BME280;11179;52.106;21.024;2023-05-21T04:58:28;101182.81;;;21.00;40.25
22031;BME280;11179;52.106;21.024;2023-05-21T05:00:53;101185.88;;;20.85;40.38
22031;BME280;11179;52.106;21.024;2023-05-21T05:03:19;101180.38;;;20.80;40.30
22031;BME280;11179;52.106;21.024;2023-05-21T05:05:45;101182.22;;;20.71;39.86
22031;BME280;11179;52.106;21.024;2023-05-21T05:08:11;101178.59;;;21.03;39.47
22031;BME280;11179;52.106;21.024;2023-05-21T05:10:36;101169.25;;;21.21;39.05
22031;BME280;11179;52.106;21.024;2023-05-21T05:13:02;101173.50;;;21.46;38.86
22031;BME280;11179;52.106;21.024;2023-05-21T05:15:27;101187.16;;;21.48;38.64
22031;BME280;11179;52.106;21.024;2023-05-21T05:17:52;101177.41;;;21.45;38.39
22031;BME280;11179;52.106;21.024;2023-05-21T05:20:18;101177.09;;;21.46;38.26
22031;BME280;11179;52.106;21.024;2023-05-21T05:22:44;101178.78;;;21.61;38.39
22031;BME280;11179;52.106;21.024;2023-05-21T05:25:09;101162.97;;;21.93;37.92
22031;BME280;11179;52.106;21.024;2023-05-21T05:27:34;101173.97;;;22.11;37.54
22031;BME280;11179;52.106;21.024;2023-05-21T05:30:00;101175.63;;;22.48;37.12
22031;BME280;11179;52.106;21.024;2023-05-21T05:32:25;101170.28;;;22.61;37.01
22031;BME280;11179;52.106;21.024;2023-05-21T05:34:51;101172.09;;;22.65;36.64
22031;BME280;11179;52.106;21.024;2023-05-21T05:37:16;101168.66;;;22.68;36.46
22031;BME280;11179;52.106;21.024;2023-05-21T05:39:41;101167.25;;;22.48;36.27
22031;BME280;11179;52.106;21.024;2023-05-21T05:42:07;101166.91;;;22.81;36.20
22031;BME280;11179;52.106;21.024;2023-05-21T05:44:32;101170.06;;;23.10;35.71
22031;BME280;11179;52.106;21.024;2023-05-21T05:46:58;101159.53;;;23.64;35.31
22031;BME280;11179;52.106;21.024;2023-05-21T05:49:23;101163.56;;;23.41;35.03
22031;BME280;11179;52.106;21.024;2023-05-21T05:51:49;101152.06;;;23.60;34.85
22031;BME280;11179;52.106;21.024;2023-05-21T05:54:14;101161.22;;;23.82;34.29
22031;BME280;11179;52.106;21.024;2023-05-21T05:56:39;101157.41;;;23.87;34.67
22031;BME280;11179;52.106;21.024;2023-05-21T05:59:05;101155.25;;;23.75;34.70
22031;BME280;11179;52.106;21.024;2023-05-21T06:01:30;101156.09;;;24.19;34.02
22031;BME280;11179;52.106;21.024;2023-05-21T06:03:56;101155.28;;;24.36;33.56
22031;BME280;11179;52.106;21.024;2023-05-21T06:06:21;101156.75;;;24.16;33.56
22031;BME280;11179;52.106;21.024;2023-05-21T06:08:46;101163.34;;;23.85;33.52
22031;BME280;11179;52.106;21.024;2023-05-21T06:11:12;101154.78;;;24.08;33.36
22031;BME280;11179;52.106;21.024;2023-05-21T06:13:41;101160.22;;;24.04;33.95
22031;BME280;11179;52.106;21.024;2023-05-21T06:16:06;101153.63;;;24.09;33.48
22031;BME280;11179;52.106;21.024;2023-05-21T06:18:34;101157.72;;;24.54;33.21
22031;BME280;11179;52.106;21.024;2023-05-21T06:20:59;101160.16;;;24.65;32.50
22031;BME280;11179;52.106;21.024;2023-05-21T06:23:24;101167.16;;;25.05;32.70
22031;BME280;11179;52.106;21.024;2023-05-21T06:25:50;101165.09;;;25.61;32.24
22031;BME280;11179;52.106;21.024;2023-05-21T06:28:15;101157.22;;;25.75;31.46
22031;BME280;11179;52.106;21.024;2023-05-21T06:30:41;101155.44;;;25.91;30.71
22031;BME280;11179;52.106;21.024;2023-05-21T06:33:07;101150.59;;;26.21;30.65
22031;BME280;11179;52.106;21.024;2023-05-21T06:35:32;101148.31;;;26.35;30.36
22031;BME280;11179;52.106;21.024;2023-05-21T06:38:01;101151.03;;;26.23;30.32
22031;BME280;11179;52.106;21.024;2023-05-21T06:40:26;101149.50;;;26.80;29.62
22031;BME280;11179;52.106;21.024;2023-05-21T06:42:51;101150.81;;;27.06;29.47
22031;BME280;11179;52.106;21.024;2023-05-21T06:45:17;101145.72;;;26.76;29.75
22031;BME280;11179;52.106;21.024;2023-05-21T06:47:42;101148.84;;;26.62;29.77
22031;BME280;11179;52.106;21.024;2023-05-21T06:50:08;101138.84;;;26.64;29.24
22031;BME280;11179;52.106;21.024;2023-05-21T06:52:33;101153.25;;;26.84;28.78
22031;BME280;11179;52.106;21.024;2023-05-21T06:54:58;101145.56;;;26.27;29.11
22031;BME280;11179;52.106;21.024;2023-05-21T06:57:24;101145.94;;;26.17;29.45
22031;BME280;11179;52.106;21.024;2023-05-21T06:59:49;101139.66;;;26.20;29.84
22031;BME280;11179;52.106;21.024;2023-05-21T07:02:14;101129.75;;;26.14;29.19
22031;BME280;11179;52.106;21.024;2023-05-21T07:04:40;101132.91;;;26.12;29.48
22031;BME280;11179;52.106;21.024;2023-05-21T07:07:06;101131.72;;;26.67;29.13
22031;BME280;11179;52.106;21.024;2023-05-21T07:09:31;101136.38;;;26.96;29.25
22031;BME280;11179;52.106;21.024;2023-05-21T07:11:56;101132.63;;;26.47;28.44
22031;BME280;11179;52.106;21.024;2023-05-21T07:14:24;101124.41;;;26.00;28.60
22031;BME280;11179;52.106;21.024;2023-05-21T07:16:49;101119.63;;;25.80;29.27
22031;BME280;11179;52.106;21.024;2023-05-21T07:19:15;101124.97;;;25.93;29.28
22031;BME280;11179;52.106;21.024;2023-05-21T07:21:40;101123.41;;;26.37;29.51
22031;BME280;11179;52.106;21.024;2023-05-21T07:24:05;101121.13;;;26.64;29.23
22031;BME280;11179;52.106;21.024;2023-05-21T07:26:31;101125.94;;;26.63;28.85
22031;BME280;11179;52.106;21.024;2023-05-21T07:28:56;101126.41;;;26.20;29.07
22031;BME280;11179;52.106;21.024;2023-05-21T07:31:21;101114.00;;;26.21;29.16
22031;BME280;11179;52.106;21.024;2023-05-21T07:33:47;101123.59;;;26.20;28.70
22031;BME280;11179;52.106;21.024;2023-05-21T07:36:12;101113.09;;;26.42;27.95
22031;BME280;11179;52.106;21.024;2023-05-21T07:38:37;101125.47;;;26.49;27.42
22031;BME280;11179;52.106;21.024;2023-05-21T07:41:04;101130.50;;;26.89;27.28
22031;BME280;11179;52.106;21.024;2023-05-21T07:43:30;101106.44;;;27.28;27.75
22031;BME280;11179;52.106;21.024;2023-05-21T07:45:55;101120.06;;;27.50;27.23
22031;BME280;11179;52.106;21.024;2023-05-21T07:48:21;101118.19;;;27.54;26.50
22031;BME280;11179;52.106;21.024;2023-05-21T07:50:46;101110.97;;;27.69;26.54
22031;BME280;11179;52.106;21.024;2023-05-21T07:53:13;101111.94;;;27.36;26.97
22031;BME280;11179;52.106;21.024;2023-05-21T07:55:38;101114.81;;;27.76;26.85
22031;BME280;11179;52.106;21.024;2023-05-21T07:58:12;101110.50;;;27.67;26.15
22031;BME280;11179;52.106;21.024;2023-05-21T08:00:42;101108.91;;;27.29;26.15
22031;BME280;11179;52.106;21.024;2023-05-21T08:03:08;101112.19;;;26.95;26.48
22031;BME280;11179;52.106;21.024;2023-05-21T08:05:35;101132.25;;;26.81;26.76
22031;BME280;11179;52.106;21.024;2023-05-21T08:08:01;101115.75;;;26.71;26.75
22031;BME280;11179;52.106;21.024;2023-05-21T08:10:26;101113.94;;;26.99;26.84
22031;BME280;11179;52.106;21.024;2023-05-21T08:12:54;101107.94;;;27.50;25.96
22031;BME280;11179;52.106;21.024;2023-05-21T08:15:19;101110.16;;;27.32;26.35
22031;BME280;11179;52.106;21.024;2023-05-21T08:17:45;101103.03;;;27.10;25.53
22031;BME280;11179;52.106;21.024;2023-05-21T08:20:10;101105.38;;;26.84;26.10
22031;BME280;11179;52.106;21.024;2023-05-21T08:22:38;101102.75;;;26.79;26.42
22031;BME280;11179;52.106;21.024;2023-05-21T08:25:04;101105.16;;;27.01;25.76
22031;BME280;11179;52.106;21.024;2023-05-21T08:27:29;101107.50;;;26.87;25.60
22031;BME280;11179;52.106;21.024;2023-05-21T08:29:54;101088.81;;;26.82;26.03
22031;BME280;11179;52.106;21.024;2023-05-21T08:32:20;101089.97;;;26.81;25.91
22031;BME280;11179;52.106;21.024;2023-05-21T08:34:45;101092.91;;;27.46;25.68
22031;BME280;11179;52.106;21.024;2023-05-21T08:37:10;101092.41;;;27.68;24.92
22031;BME280;11179;52.106;21.024;2023-05-21T08:39:36;101098.91;;;27.44;25.40
22031;BME280;11179;52.106;21.024;2023-05-21T08:42:10;101096.69;;;27.01;25.04
22031;BME280;11179;52.106;21.024;2023-05-21T08:44:42;101097.63;;;27.29;25.03
22031;BME280;11179;52.106;21.024;2023-05-21T08:47:09;101092.59;;;27.75;24.71
22031;BME280;11179;52.106;21.024;2023-05-21T08:49:38;101087.06;;;27.78;24.51
22031;BME280;11179;52.106;21.024;2023-05-21T08:52:04;101095.38;;;27.87;24.58
22031;BME280;11179;52.106;21.024;2023-05-21T08:54:30;101093.38;;;27.88;24.54
22031;BME280;11179;52.106;21.024;2023-05-21T08:56:56;101099.31;;;27.83;24.21
22031;BME280;11179;52.106;21.024;2023-05-21T08:59:22;101093.38;;;27.35;24.04
22031;BME280;11179;52.106;21.024;2023-05-21T09:01:48;101097.38;;;27.22;24.72
22031;BME280;11179;52.106;21.024;2023-05-21T09:04:14;101087.53;;;27.16;24.37
22031;BME280;11179;52.106;21.024;2023-05-21T09:06:41;101090.53;;;27.35;24.65
22031;BME280;11179;52.106;21.024;2023-05-21T09:09:16;101095.53;;;27.38;24.01
22031;BME280;11179;52.106;21.024;2023-05-21T09:11:46;101088.34;;;27.04;24.11
22031;BME280;11179;52.106;21.024;2023-05-21T09:14:12;101097.38;;;26.98;24.72
22031;BME280;11179;52.106;21.024;2023-05-21T09:16:39;101094.00;;;26.47;24.66
22031;BME280;11179;52.106;21.024;2023-05-21T09:19:04;101107.09;;;26.31;25.31
22031;BME280;11179;52.106;21.024;2023-05-21T09:21:30;101098.78;;;26.14;24.81
22031;BME280;11179;52.106;21.024;2023-05-21T09:23:56;101084.94;;;26.09;25.32
22031;BME280;11179;52.106;21.024;2023-05-21T09:26:23;101076.63;;;26.12;25.31
22031;BME280;11179;52.106;21.024;2023-05-21T09:28:49;101072.41;;;26.51;25.17
22031;BME280;11179;52.106;21.024;2023-05-21T09:31:15;101075.78;;;27.02;24.81
22031;BME280;11179;52.106;21.024;2023-05-21T09:33:47;101068.16;;;27.02;25.44
22031;BME280;11179;52.106;21.024;2023-05-21T09:36:12;101068.16;;;27.15;24.63
22031;BME280;11179;52.106;21.024;2023-05-21T09:38:38;101072.97;;;27.02;24.22
22031;BME280;11179;52.106;21.024;2023-05-21T09:41:03;101080.16;;;26.54;24.54
22031;BME280;11179;52.106;21.024;2023-05-21T09:43:29;101072.09;;;25.99;24.94
22031;BME280;11179;52.106;21.024;2023-05-21T09:45:55;101081.28;;;25.75;25.45
22031;BME280;11179;52.106;21.024;2023-05-21T09:51:15;101064.97;;;26.01;25.28
22031;BME280;11179;52.106;21.024;2023-05-21T09:54:02;101079.09;;;26.14;25.35
22031;BME280;11179;52.106;21.024;2023-05-21T09:56:28;101069.88;;;25.92;25.22
22031;BME280;11179;52.106;21.024;2023-05-21T09:58:59;101076.66;;;25.71;25.33
22031;BME280;11179;52.106;21.024;2023-05-21T10:01:26;101070.19;;;25.28;25.43
22031;BME280;11179;52.106;21.024;2023-05-21T10:03:57;101075.94;;;25.32;25.67
22031;BME280;11179;52.106;21.024;2023-05-21T10:06:25;101081.81;;;25.18;25.77
22031;BME280;11179;52.106;21.024;2023-05-21T10:08:52;101073.41;;;25.39;26.14
22031;BME280;11179;52.106;21.024;2023-05-21T10:11:22;101072.84;;;25.75;26.17
22031;BME280;11179;52.106;21.024;2023-05-21T10:13:56;101061.13;;;26.06;25.59
22031;BME280;11179;52.106;21.024;2023-05-21T10:16:22;101058.06;;;26.11;25.52
22031;BME280;11179;52.106;21.024;2023-05-21T10:18:48;101066.63;;;26.02;25.51
22031;BME280;11179;52.106;21.024;2023-05-21T10:21:14;101070.06;;;25.87;25.65
22031;BME280;11179;52.106;21.024;2023-05-21T10:23:40;101055.53;;;25.85;25.74
22031;BME280;11179;52.106;21.024;2023-05-21T10:26:07;101068.31;;;25.62;25.46
22031;BME280;11179;52.106;21.024;2023-05-21T10:28:32;101061.34;;;25.39;25.54
22031;BME280;11179;52.106;21.024;2023-05-21T10:30:59;101057.06;;;25.32;25.74
22031;BME280;11179;52.106;21.024;2023-05-21T10:33:25;101063.19;;;25.35;25.74
22031;BME280;11179;52.106;21.024;2023-05-21T10:35:52;101064.66;;;25.41;26.40
22031;BME280;11179;52.106;21.024;2023-05-21T10:38:18;101060.84;;;25.66;26.51
22031;BME280;11179;52.106;21.024;2023-05-21T10:40:47;101070.19;;;25.49;25.88
22031;BME280;11179;52.106;21.024;2023-05-21T10:46:35;101058.31;;;25.44;26.05
22031;BME280;11179;52.106;21.024;2023-05-21T10:49:37;101056.09;;;25.58;25.66
22031;BME280;11179;52.106;21.024;2023-05-21T10:58:22;101046.06;;;25.27;25.94
22031;BME280;11179;52.106;21.024;2023-05-21T11:00:54;101039.56;;;25.06;26.77
22031;BME280;11179;52.106;21.024;2023-05-21T11:03:20;101046.44;;;24.88;27.23
22031;BME280;11179;52.106;21.024;2023-05-21T11:05:55;101033.34;;;25.01;27.11
22031;BME280;11179;52.106;21.024;2023-05-21T11:08:31;101032.59;;;25.12;27.15
22031;BME280;11179;52.106;21.024;2023-05-21T11:10:59;101038.06;;;25.09;27.07
22031;BME280;11179;52.106;21.024;2023-05-21T11:13:26;101039.34;;;24.82;27.33
22031;BME280;11179;52.106;21.024;2023-05-21T11:21:17;101020.91;;;24.72;26.22
22031;BME280;11179;52.106;21.024;2023-05-21T11:23:58;101015.38;;;24.84;26.37
22031;BME280;11179;52.106;21.024;2023-05-21T11:26:27;101016.19;;;24.93;26.57
22031;BME280;11179;52.106;21.024;2023-05-21T11:31:27;101019.06;;;24.76;26.91
22031;BME280;11179;52.106;21.024;2023-05-21T11:36:48;101017.81;;;24.10;26.96
22031;BME280;11179;52.106;21.024;2023-05-21T11:39:17;101026.75;;;23.95;27.40
22031;BME280;11179;52.106;21.024;2023-05-21T11:42:01;101017.66;;;24.06;27.04
22031;BME280;11179;52.106;21.024;2023-05-21T11:44:46;100995.78;;;24.38;26.60
22031;BME280;11179;52.106;21.024;2023-05-21T11:47:16;101004.06;;;24.72;26.88
22031;BME280;11179;52.106;21.024;2023-05-21T11:49:42;101008.63;;;24.77;27.33
22031;BME280;11179;52.106;21.024;2023-05-21T11:52:09;101011.56;;;24.59;26.48
22031;BME280;11179;52.106;21.024;2023-05-21T11:54:53;101017.06;;;24.47;26.98
22031;BME280;11179;52.106;21.024;2023-05-21T11:57:21;101016.44;;;24.33;27.13
22031;BME280;11179;52.106;21.024;2023-05-21T11:59:48;101011.13;;;24.40;27.36
22031;BME280;11179;52.106;21.024;2023-05-21T12:02:20;101008.59;;;24.56;27.51
22031;BME280;11179;52.106;21.024;2023-05-21T12:04:48;101010.75;;;24.50;26.85
22031;BME280;11179;52.106;21.024;2023-05-21T12:07:15;101002.06;;;24.26;27.02
22031;BME280;11179;52.106;21.024;2023-05-21T12:09:41;101005.56;;;24.23;27.92
22031;BME280;11179;52.106;21.024;2023-05-21T12:12:07;101004.38;;;24.24;28.11
22031;BME280;11179;52.106;21.024;2023-05-21T12:14:34;101006.94;;;24.55;28.58
22031;BME280;11179;52.106;21.024;2023-05-21T12:16:59;100997.41;;;24.77;28.07
22031;BME280;11179;52.106;21.024;2023-05-21T12:19:25;100996.88;;;24.83;28.05
22031;BME280;11179;52.106;21.024;2023-05-21T12:21:50;100987.91;;;24.90;28.65
22031;BME280;11179;52.106;21.024;2023-05-21T12:24:16;100998.63;;;24.67;27.50
22031;BME280;11179;52.106;21.024;2023-05-21T12:26:42;100993.00;;;24.29;28.07
22031;BME280;11179;52.106;21.024;2023-05-21T12:29:10;100999.78;;;24.11;28.64
22031;BME280;11179;52.106;21.024;2023-05-21T12:31:59;101005.09;;;24.04;29.33
22031;BME280;11179;52.106;21.024;2023-05-21T12:37:14;100988.72;;;24.23;28.04
22031;BME280;11179;52.106;21.024;2023-05-21T12:39:42;100984.72;;;24.24;28.49
22031;BME280;11179;52.106;21.024;2023-05-21T12:42:08;100984.25;;;24.31;28.48
22031;BME280;11179;52.106;21.024;2023-05-21T12:44:33;100992.22;;;24.03;27.78
22031;BME280;11179;52.106;21.024;2023-05-21T12:46:59;100988.25;;;24.12;28.09
22031;BME280;11179;52.106;21.024;2023-05-21T12:49:41;100987.41;;;24.20;28.12
22031;BME280;11179;52.106;21.024;2023-05-21T12:52:10;100986.38;;;24.25;27.84
22031;BME280;11179;52.106;21.024;2023-05-21T12:54:38;100977.22;;;24.07;28.65
22031;BME280;11179;52.106;21.024;2023-05-21T12:57:07;100983.16;;;24.06;29.11
22031;BME280;11179;52.106;21.024;2023-05-21T12:59:43;100992.06;;;24.08;29.03
22031;BME280;11179;52.106;21.024;2023-05-21T13:02:13;100975.44;;;23.94;28.40
22031;BME280;11179;52.106;21.024;2023-05-21T13:04:38;100974.94;;;23.83;27.57
22031;BME280;11179;52.106;21.024;2023-05-21T13:07:04;100978.22;;;24.03;28.05
22031;BME280;11179;52.106;21.024;2023-05-21T13:09:29;100967.47;;;24.05;27.95